Terminal Aerodrome Forecast
Issued by NWS

Home | Current Version | Previous Version | Text Only | Print | Product List | Glossary On
Versions: 1 2 3 4 5 6 7 8 9 10 11 12 13 14 15 16 17 18 19 20 21 22 23 24 25 26 27 28 29 30 31 32
170
FTUS45 KGJT 192031 AAA
TAFRIL
TAF AMD
KRIL 192031Z 1921/2018 27005KT P6SM VCSH OVC060
     FM200200 22004KT 4SM -RASN OVC015
     FM200600 VRB03KT 3SM -SN OVC015
     FM201700 VRB03KT 2SM -SN OVC015=

USA.gov is the U.S. government's official web portal to all federal, state and local government web resources and services.